This is the latest recevied weather packets stored in our database for station/object LRSM. If no packets are shown the sender has not sent any weather packets the latest 10 day(s).
| Time | Temp. | Humidity | Pressure | Rain* | Wind** | Luminosity | Snow |
|---|---|---|---|---|---|---|---|
| 1777934012 | 12.22° C | 54% | 1016 hPa | - | - | - | - |
| 1777933135 | 12.22° C | 54% | 1016 hPa | - | - | - | - |
| 1777931312 | 12.22° C | 54% | 1016 hPa | - | - | - | - |
| 1777929512 | 11.11° C | 62% | 1016 hPa | - | - | - | - |
| 1777928612 | 11.11° C | 62% | 1016 hPa | - | - | - | - |
| 1777926814 | 12.78° C | 51% | 1016 hPa | - | - | - | - |
| 1777925013 | 13.89° C | 48% | 1016 hPa | - | - | - | - |
| 1777923213 | 15° C | 45% | 1016 hPa | - | - | - | - |
| 1777922312 | 16.11° C | 42% | 1016 hPa | - | - | - | - |
| 1777919623 | 18.89° C | 35% | 1015 hPa | - | - | - | - |
| 1777918713 | 20° C | 33% | 1015 hPa | - | - | - | - |
| 1777917812 | 20° C | 33% | 1015 hPa | - | - | - | - |
| 1777916013 | 21.11° C | 31% | 1015 hPa | - | - | - | - |
| 1777915112 | 23.89° C | 25% | 1015 hPa | - | - | - | - |
| 1777914212 | 23.89° C | 25% | 1015 hPa | - | - | - | - |
| 1777913312 | 26.11° C | 21% | 1015 hPa | - | - | - | - |
| 1777912427 | 26.11° C | 21% | 1015 hPa | - | - | - | - |
| 1777911521 | 26.11° C | 18% | 1015 hPa | - | - | - | - |
| 1777910613 | 26.11° C | 18% | 1015 hPa | - | - | - | - |
| 1777909712 | 26.11° C | 20% | 1015 hPa | - | - | - | - |
| 1777908812 | 26.11° C | 20% | 1015 hPa | - | - | - | - |
| 1777907913 | 26.11° C | 18% | 1015 hPa | - | - | - | - |
| 1777907012 | 26.11° C | 18% | 1015 hPa | - | - | - | - |
| 1777906112 | 26.11° C | 18% | 1016 hPa | - | - | - | - |
| 1777905213 | 26.11° C | 18% | 1016 hPa | - | - | - | - |
* Rain since midnight (hover to see other rain measurements)
** Current wind speed in m/s (hover to see current wind gust speed)